createdAt,value
2018-12-28T00:00:45.403Z,3.50
2018-12-28T00:03:21.350Z,3.50
2018-12-28T00:05:54.267Z,3.50
2018-12-28T00:08:24.454Z,3.50
2018-12-28T00:10:54.608Z,3.50
2018-12-28T00:13:25.030Z,3.40
2018-12-28T00:16:01.837Z,3.40
2018-12-28T00:18:32.357Z,3.40
2018-12-28T00:21:02.835Z,3.20
2018-12-28T00:23:33.596Z,3.20
2018-12-28T00:26:04.119Z,3.20
2018-12-28T00:28:36.734Z,3.10
2018-12-28T00:31:09.617Z,3.10
2018-12-28T00:33:40.018Z,3.10
2018-12-28T00:36:11.974Z,2.90
2018-12-28T00:38:42.717Z,3.00
2018-12-28T00:41:14.933Z,3.00
2018-12-28T00:43:45.198Z,3.00
2018-12-28T00:46:15.746Z,3.00
2018-12-28T00:48:46.502Z,2.80
2018-12-28T00:51:16.818Z,2.60
2018-12-28T00:53:50.286Z,2.70
2018-12-28T00:56:20.968Z,2.30
2018-12-28T00:58:51.798Z,2.20
2018-12-28T01:01:22.209Z,2.40
2018-12-28T01:03:52.511Z,2.40
2018-12-28T01:06:26.153Z,2.50
2018-12-28T01:08:58.917Z,2.60
2018-12-28T01:11:29.552Z,2.50
2018-12-28T01:14:00.544Z,2.50
2018-12-28T01:16:32.045Z,2.50
2018-12-28T01:19:02.913Z,2.40
2018-12-28T01:21:33.190Z,2.50
2018-12-28T01:24:06.683Z,2.50
2018-12-28T01:26:42.061Z,2.50
2018-12-28T01:29:12.716Z,2.50
2018-12-28T01:31:43.079Z,2.50
2018-12-28T01:34:16.386Z,2.50
2018-12-28T01:36:46.613Z,2.50
2018-12-28T01:39:21.043Z,2.50
2018-12-28T01:41:51.063Z,2.50
2018-12-28T01:44:24.667Z,2.40
2018-12-28T01:46:55.101Z,2.40
2018-12-28T01:49:28.788Z,2.40
2018-12-28T01:51:59.125Z,2.40
2018-12-28T01:54:29.355Z,2.50
2018-12-28T01:57:00.226Z,2.50
2018-12-28T01:59:30.645Z,2.50
2018-12-28T02:02:07.882Z,2.50
2018-12-28T02:04:38.345Z,2.60
2018-12-28T02:07:08.800Z,2.60
2018-12-28T02:09:39.275Z,2.60
2018-12-28T02:12:09.406Z,2.60
2018-12-28T02:14:41.066Z,2.60
2018-12-28T02:17:12.051Z,2.60
2018-12-28T02:19:42.351Z,2.70
2018-12-28T02:22:12.687Z,2.70
2018-12-28T02:24:43.085Z,2.70
2018-12-28T02:27:13.383Z,2.70
2018-12-28T02:29:44.706Z,2.80
2018-12-28T02:32:16.826Z,2.80
2018-12-28T02:34:47.423Z,2.80
2018-12-28T02:37:17.921Z,2.80
2018-12-28T02:39:53.133Z,2.90
2018-12-28T02:42:23.377Z,2.90
2018-12-28T02:44:53.944Z,2.90
2018-12-28T02:47:25.080Z,2.90
2018-12-28T02:49:55.302Z,2.90
2018-12-28T02:52:25.665Z,2.90
2018-12-28T02:54:56.357Z,3.00
2018-12-28T02:57:26.687Z,3.00
2018-12-28T02:59:56.907Z,3.00
2018-12-28T03:02:27.827Z,3.00
2018-12-28T03:04:58.294Z,3.00
2018-12-28T03:07:28.454Z,3.00
2018-12-28T03:09:59.417Z,3.00
2018-12-28T03:12:29.745Z,3.00
2018-12-28T03:15:00.431Z,3.00
2018-12-28T03:17:32.405Z,3.00
2018-12-28T03:20:02.754Z,3.00
2018-12-28T03:22:33.061Z,3.10
2018-12-28T03:25:04.469Z,3.00
2018-12-28T03:27:36.265Z,3.00
2018-12-28T03:30:06.833Z,3.00
2018-12-28T03:32:37.759Z,3.00
2018-12-28T03:35:08.170Z,3.00
2018-12-28T03:37:38.502Z,3.00
2018-12-28T03:40:09.269Z,3.00
2018-12-28T03:42:39.992Z,3.00
2018-12-28T03:45:10.876Z,3.10
2018-12-28T03:47:41.285Z,3.10
2018-12-28T03:50:11.596Z,3.10
2018-12-28T03:52:42.155Z,3.10
2018-12-28T03:55:13.025Z,3.10
2018-12-28T03:57:43.487Z,3.10
2018-12-28T04:00:13.880Z,3.10
2018-12-28T04:02:45.518Z,3.10
2018-12-28T04:05:16.234Z,3.10
2018-12-28T04:07:46.511Z,3.10
2018-12-28T04:10:18.769Z,3.10
2018-12-28T04:12:49.011Z,3.10
2018-12-28T04:15:19.337Z,3.10
2018-12-28T04:17:50.149Z,3.20
2018-12-28T04:20:20.410Z,3.00
2018-12-28T04:22:50.907Z,3.00
2018-12-28T04:25:23.613Z,3.00
2018-12-28T04:27:54.035Z,2.90
2018-12-28T04:30:24.393Z,2.90
2018-12-28T04:32:55.425Z,3.00
2018-12-28T04:35:25.711Z,3.00
2018-12-28T04:37:56.048Z,3.00
2018-12-28T04:40:29.376Z,3.20
2018-12-28T04:42:59.787Z,3.10
2018-12-28T04:45:29.967Z,3.20
2018-12-28T04:48:00.275Z,3.10
2018-12-28T04:50:31.446Z,3.00
2018-12-28T04:53:03.306Z,3.10
2018-12-28T04:55:33.846Z,3.10
2018-12-28T04:58:04.503Z,3.10
2018-12-28T05:00:40.885Z,3.00
2018-12-28T05:03:20.960Z,3.00
2018-12-28T05:06:21.128Z,3.00
2018-12-28T05:09:21.450Z,2.90
2018-12-28T05:12:06.718Z,3.00
2018-12-28T05:15:03.136Z,3.00
2018-12-28T05:18:02.386Z,3.00
2018-12-28T05:20:48.042Z,3.00
2018-12-28T05:23:59.223Z,3.00
2018-12-28T05:26:43.179Z,3.00
2018-12-28T05:29:34.490Z,3.00
2018-12-28T05:32:36.414Z,3.00
2018-12-28T05:35:07.211Z,3.00
2018-12-28T05:37:37.706Z,3.00
2018-12-28T05:40:08.079Z,3.00
2018-12-28T05:42:38.586Z,3.10
2018-12-28T05:45:09.653Z,3.10
2018-12-28T05:47:39.861Z,3.10
2018-12-28T05:50:10.561Z,3.00
2018-12-28T05:52:41.177Z,3.00
2018-12-28T05:55:11.589Z,3.10
2018-12-28T05:57:41.937Z,3.00
2018-12-28T06:00:12.858Z,3.00
2018-12-28T06:02:44.776Z,3.00
2018-12-28T06:05:16.865Z,3.00
2018-12-28T06:07:49.137Z,3.10
2018-12-28T06:10:19.458Z,3.10
2018-12-28T06:12:50.316Z,3.10
2018-12-28T06:15:20.849Z,3.00
2018-12-28T06:17:51.281Z,3.10
2018-12-28T06:20:21.692Z,3.10
2018-12-28T06:22:52.177Z,3.10
2018-12-28T06:25:22.820Z,3.10
2018-12-28T06:27:53.421Z,3.10
2018-12-28T06:30:24.407Z,3.10
2018-12-28T06:32:54.693Z,3.20
2018-12-28T06:35:24.842Z,3.10
2018-12-28T06:37:55.839Z,3.20
2018-12-28T06:40:26.481Z,3.20
2018-12-28T06:42:56.861Z,3.20
2018-12-28T06:45:27.596Z,3.20
2018-12-28T06:47:58.197Z,3.30
2018-12-28T06:50:28.521Z,3.20
2018-12-28T06:54:04.169Z,3.20
2018-12-28T06:57:27.349Z,3.20
2018-12-28T07:00:37.630Z,3.20
2018-12-28T07:03:43.205Z,3.10
2018-12-28T07:07:23.326Z,3.10
2018-12-28T07:10:47.493Z,3.30
2018-12-28T07:14:04.884Z,3.30
2018-12-28T07:17:08.174Z,3.40
2018-12-28T07:20:23.709Z,3.40
2018-12-28T07:23:33.688Z,3.40
2018-12-28T07:27:02.287Z,3.50
2018-12-28T07:30:27.800Z,3.40
2018-12-28T07:33:34.283Z,3.50
2018-12-28T07:37:10.477Z,3.40
2018-12-28T07:40:16.812Z,3.40
2018-12-28T07:43:36.016Z,3.50
2018-12-28T07:46:34.694Z,3.30
2018-12-28T07:49:56.482Z,3.40
2018-12-28T07:53:07.301Z,3.40
2018-12-28T07:56:15.776Z,3.40
2018-12-28T07:59:20.349Z,3.40
2018-12-28T08:02:35.715Z,3.40
2018-12-28T08:06:01.307Z,3.40
2018-12-28T08:09:07.949Z,3.30
2018-12-28T08:12:06.300Z,3.20
2018-12-28T08:15:26.619Z,3.30
2018-12-28T08:18:48.434Z,3.20
2018-12-28T08:21:53.876Z,3.30
2018-12-28T08:25:03.633Z,3.20
2018-12-28T08:28:10.332Z,3.20
2018-12-28T08:31:26.821Z,3.30
2018-12-28T08:34:37.006Z,3.30
2018-12-28T08:37:47.017Z,3.40
2018-12-28T08:40:42.593Z,3.40
2018-12-28T08:44:04.445Z,3.30
2018-12-28T08:47:30.228Z,3.50
2018-12-28T08:50:56.597Z,3.50
2018-12-28T08:54:28.626Z,3.60
2018-12-28T08:57:38.566Z,3.60
2018-12-28T09:00:52.223Z,3.60
2018-12-28T09:04:07.196Z,3.60
2018-12-28T09:07:22.369Z,3.60
2018-12-28T09:10:49.637Z,3.70
2018-12-28T09:14:04.690Z,3.70
2018-12-28T09:17:28.585Z,3.70
2018-12-28T09:20:35.393Z,3.60
2018-12-28T09:23:39.746Z,3.70
2018-12-28T09:26:49.730Z,3.70
2018-12-28T09:30:18.703Z,3.60
2018-12-28T09:33:26.317Z,3.50
2018-12-28T09:36:43.531Z,3.50
2018-12-28T09:39:49.652Z,3.60
2018-12-28T09:43:03.006Z,3.50
2018-12-28T09:46:03.869Z,3.40
2018-12-28T09:49:02.590Z,3.50
2018-12-28T09:52:05.723Z,3.60
2018-12-28T09:55:32.288Z,3.50
2018-12-28T09:58:38.595Z,3.50
2018-12-28T10:01:58.573Z,3.80
2018-12-28T10:05:08.690Z,3.60
2018-12-28T10:08:19.123Z,3.70
2018-12-28T10:11:23.940Z,3.60
2018-12-28T10:14:24.404Z,3.80
2018-12-28T10:16:54.729Z,3.70
2018-12-28T10:19:25.036Z,3.70
2018-12-28T10:21:55.741Z,3.60
2018-12-28T10:24:26.463Z,3.70
2018-12-28T10:26:56.700Z,3.70
2018-12-28T10:29:29.612Z,3.70
2018-12-28T10:32:02.587Z,3.80
2018-12-28T10:34:33.247Z,3.80
2018-12-28T10:37:05.334Z,3.70
2018-12-28T10:39:35.482Z,3.80
2018-12-28T10:42:06.652Z,3.90
2018-12-28T10:44:37.227Z,4.00
2018-12-28T10:47:07.765Z,3.90
2018-12-28T10:49:38.673Z,3.80
2018-12-28T10:52:09.261Z,3.90
2018-12-28T10:54:39.517Z,4.00
2018-12-28T10:57:10.306Z,4.00
2018-12-28T10:59:41.619Z,3.90
2018-12-28T11:02:16.660Z,3.90
2018-12-28T11:04:52.818Z,4.00
2018-12-28T11:07:23.208Z,4.10
2018-12-28T11:09:53.894Z,4.10
2018-12-28T11:12:24.213Z,4.10
2018-12-28T11:14:57.310Z,4.10
2018-12-28T11:17:32.860Z,4.10
2018-12-28T11:20:06.480Z,4.00
2018-12-28T11:22:38.685Z,4.00
2018-12-28T11:25:09.290Z,4.10
2018-12-28T11:27:39.867Z,4.10
2018-12-28T11:30:10.089Z,4.00
2018-12-28T11:32:40.450Z,4.10
2018-12-28T11:35:11.153Z,4.20
2018-12-28T11:37:44.206Z,4.10
2018-12-28T11:40:14.587Z,4.10
2018-12-28T11:42:47.957Z,4.00
2018-12-28T11:45:24.686Z,3.80
2018-12-28T11:47:54.849Z,3.70
2018-12-28T11:50:25.226Z,3.70
2018-12-28T11:52:55.629Z,3.70
2018-12-28T11:55:29.727Z,3.70
2018-12-28T11:58:01.617Z,3.70
2018-12-28T12:00:31.880Z,3.80
2018-12-28T12:03:02.953Z,3.60
2018-12-28T12:05:35.540Z,3.60
2018-12-28T12:08:08.900Z,3.60
2018-12-28T12:10:39.387Z,3.40
2018-12-28T12:13:09.691Z,3.40
2018-12-28T12:15:40.098Z,3.40
2018-12-28T12:18:13.495Z,3.40
2018-12-28T12:20:45.972Z,3.40
2018-12-28T12:23:16.367Z,3.40
2018-12-28T12:25:46.653Z,3.30
2018-12-28T12:28:18.660Z,3.40
2018-12-28T12:30:49.342Z,3.30
2018-12-28T12:33:23.146Z,3.30
2018-12-28T12:35:53.550Z,3.30
2018-12-28T12:38:26.853Z,3.40
2018-12-28T12:40:57.145Z,3.30
2018-12-28T12:43:27.715Z,3.30
2018-12-28T12:46:01.676Z,3.30
2018-12-28T12:48:31.914Z,3.30
2018-12-28T12:51:03.794Z,3.30
2018-12-28T12:53:34.472Z,3.30
2018-12-28T12:56:04.849Z,3.30
2018-12-28T12:58:35.113Z,3.30
2018-12-28T13:01:07.273Z,3.30
2018-12-28T13:03:38.644Z,3.40
2018-12-28T13:06:11.374Z,3.20
2018-12-28T13:08:46.064Z,3.20
2018-12-28T13:11:16.227Z,3.20
2018-12-28T13:13:47.621Z,3.10
2018-12-28T13:16:18.498Z,3.20
2018-12-28T13:18:48.665Z,3.20
2018-12-28T13:21:20.760Z,3.20
2018-12-28T13:23:54.114Z,3.30
2018-12-28T13:26:24.325Z,3.20
2018-12-28T13:28:56.079Z,3.30
2018-12-28T13:31:27.869Z,3.30
2018-12-28T13:34:01.177Z,3.20
2018-12-28T13:36:34.882Z,3.10
2018-12-28T13:39:09.543Z,3.10
2018-12-28T13:41:40.179Z,3.20
2018-12-28T13:44:10.734Z,3.30
2018-12-28T13:46:46.318Z,3.20
2018-12-28T13:49:16.785Z,3.10
2018-12-28T13:51:49.317Z,3.00
2018-12-28T13:54:21.841Z,3.20
2018-12-28T13:56:52.262Z,3.10
2018-12-28T13:59:23.012Z,3.10
2018-12-28T14:01:57.250Z,3.10
2018-12-28T14:04:35.281Z,3.20
2018-12-28T14:07:05.380Z,3.20
2018-12-28T14:09:36.113Z,3.20
2018-12-28T14:12:06.526Z,3.20
2018-12-28T14:14:38.105Z,3.20
2018-12-28T14:17:14.401Z,3.40
2018-12-28T14:19:47.525Z,3.40
2018-12-28T14:22:20.297Z,3.30
2018-12-28T14:24:50.558Z,3.30
2018-12-28T14:27:22.476Z,3.20
2018-12-28T14:29:52.733Z,3.20
2018-12-28T14:32:22.934Z,3.20
2018-12-28T14:34:54.179Z,3.30
2018-12-28T14:37:25.017Z,3.20
2018-12-28T14:39:59.947Z,3.10
2018-12-28T14:42:36.381Z,3.10
2018-12-28T14:45:09.609Z,3.20
2018-12-28T14:47:39.926Z,3.20
2018-12-28T14:50:13.560Z,3.20
2018-12-28T14:52:46.724Z,3.30
2018-12-28T14:55:24.478Z,3.20
2018-12-28T14:57:55.157Z,3.30
2018-12-28T15:00:50.995Z,3.30
2018-12-28T15:03:21.490Z,3.20
2018-12-28T15:05:53.105Z,3.20
2018-12-28T15:08:26.504Z,3.20
2018-12-28T15:10:59.817Z,3.20
2018-12-28T15:13:32.213Z,3.20
2018-12-28T15:16:05.634Z,3.20
2018-12-28T15:18:36.198Z,3.30
2018-12-28T15:21:08.776Z,3.30
2018-12-28T15:23:42.114Z,3.40
2018-12-28T15:26:12.417Z,3.30
2018-12-28T15:28:44.020Z,3.20
2018-12-28T15:31:16.234Z,3.20
2018-12-28T15:33:48.812Z,3.30
2018-12-28T15:36:19.361Z,3.30
2018-12-28T15:38:49.631Z,3.30
2018-12-28T15:41:21.097Z,3.20
2018-12-28T15:43:53.186Z,3.20
2018-12-28T15:46:23.609Z,3.20
2018-12-28T15:48:56.596Z,3.30
2018-12-28T15:51:26.969Z,3.30
2018-12-28T15:53:57.274Z,3.40
2018-12-28T15:56:28.834Z,3.40
2018-12-28T15:58:59.150Z,3.40
2018-12-28T16:01:35.423Z,3.40
2018-12-28T16:04:11.214Z,3.40
2018-12-28T16:06:41.781Z,3.30
2018-12-28T16:09:13.934Z,3.40
2018-12-28T16:11:44.262Z,3.50
2018-12-28T16:14:14.982Z,3.50
2018-12-28T16:16:48.350Z,3.50
2018-12-28T16:19:20.097Z,3.50
2018-12-28T16:21:50.456Z,3.40
2018-12-28T16:24:21.187Z,3.50
2018-12-28T16:26:52.015Z,3.60
2018-12-28T16:29:22.357Z,3.50
2018-12-28T16:31:53.356Z,3.50
2018-12-28T16:34:23.897Z,3.60
2018-12-28T16:36:54.116Z,3.80
2018-12-28T16:39:24.270Z,3.90
2018-12-28T16:41:55.078Z,3.90
2018-12-28T16:44:36.910Z,3.90
2018-12-28T16:47:14.352Z,3.90
2018-12-28T16:49:46.401Z,4.00
2018-12-28T16:52:16.854Z,3.90
2018-12-28T16:54:48.690Z,3.90
2018-12-28T16:57:20.722Z,3.80
2018-12-28T16:59:54.567Z,3.90
2018-12-28T17:02:24.777Z,4.00
2018-12-28T17:04:57.420Z,3.90
2018-12-28T17:07:33.469Z,4.00
2018-12-28T17:10:08.733Z,3.90
2018-12-28T17:12:46.827Z,4.00
2018-12-28T17:15:24.537Z,3.90
2018-12-28T17:17:54.973Z,3.90
2018-12-28T17:20:25.949Z,4.00
2018-12-28T17:22:56.197Z,3.90
2018-12-28T17:25:26.951Z,3.90
2018-12-28T17:28:06.627Z,3.80
2018-12-28T17:30:39.305Z,3.70
2018-12-28T17:33:12.292Z,3.70
2018-12-28T17:35:42.907Z,3.60
2018-12-28T17:38:15.326Z,3.60
2018-12-28T17:40:45.496Z,3.50
2018-12-28T17:43:20.038Z,3.50
2018-12-28T17:45:51.769Z,3.50
2018-12-28T17:48:29.882Z,3.40
2018-12-28T17:51:01.879Z,3.30
2018-12-28T17:53:32.478Z,3.40
2018-12-28T17:56:05.723Z,3.40
2018-12-28T17:58:35.545Z,3.40
2018-12-28T18:01:05.755Z,3.30
2018-12-28T18:03:36.762Z,3.40
2018-12-28T18:06:06.969Z,3.40
2018-12-28T18:08:38.458Z,3.40
2018-12-28T18:11:08.976Z,3.40
2018-12-28T18:13:42.685Z,3.30
2018-12-28T18:16:16.017Z,3.30
2018-12-28T18:18:49.074Z,3.40
2018-12-28T18:21:19.987Z,3.40
2018-12-28T18:23:50.373Z,3.50
2018-12-28T18:26:20.819Z,3.50
2018-12-28T18:28:51.294Z,3.40
2018-12-28T18:31:25.089Z,3.50
2018-12-28T18:33:55.834Z,3.40
2018-12-28T18:36:26.606Z,3.30
2018-12-28T18:38:58.569Z,3.40
2018-12-28T18:41:28.993Z,3.40
2018-12-28T18:44:04.826Z,3.40
2018-12-28T18:46:35.284Z,3.40
2018-12-28T18:49:05.784Z,3.50
2018-12-28T18:51:39.625Z,3.50
2018-12-28T18:54:10.818Z,3.50
2018-12-28T18:56:44.525Z,3.40
2018-12-28T18:59:14.554Z,3.40
2018-12-28T19:01:45.634Z,3.40
2018-12-28T19:04:18.554Z,3.30
2018-12-28T19:06:51.295Z,3.50
2018-12-28T19:09:22.272Z,3.40
2018-12-28T19:11:53.465Z,3.50
2018-12-28T19:14:24.218Z,3.50
2018-12-28T19:16:56.518Z,3.40
2018-12-28T19:19:26.813Z,3.40
2018-12-28T19:21:59.051Z,3.50
2018-12-28T19:24:32.155Z,3.40
2018-12-28T19:27:02.441Z,3.50
2018-12-28T19:29:33.506Z,3.40
2018-12-28T19:32:03.869Z,3.40
2018-12-28T19:34:34.360Z,3.40
2018-12-28T19:37:06.868Z,3.40
2018-12-28T19:39:40.055Z,3.40
2018-12-28T19:42:13.324Z,3.30
2018-12-28T19:44:46.278Z,3.40
2018-12-28T19:47:16.642Z,3.40
2018-12-28T19:49:47.365Z,3.40
2018-12-28T19:52:19.154Z,3.50
2018-12-28T19:54:49.551Z,3.50
2018-12-28T19:57:22.352Z,3.60
2018-12-28T19:59:53.602Z,3.50
2018-12-28T20:02:24.581Z,3.50
2018-12-28T20:04:56.859Z,3.50
2018-12-28T20:07:27.434Z,3.50
2018-12-28T20:09:57.957Z,3.50
2018-12-28T20:12:28.254Z,3.50
2018-12-28T20:14:59.416Z,3.50
2018-12-28T20:17:32.964Z,3.40
2018-12-28T20:20:08.878Z,3.50
2018-12-28T20:22:42.475Z,3.60
2018-12-28T20:25:18.059Z,3.60
2018-12-28T20:27:52.613Z,3.60
2018-12-28T20:30:30.669Z,3.60
2018-12-28T20:33:03.917Z,3.60
2018-12-28T20:35:38.916Z,3.70
2018-12-28T20:38:12.236Z,3.80
2018-12-28T20:40:43.257Z,3.80
2018-12-28T20:43:14.847Z,3.90
2018-12-28T20:45:45.745Z,3.90
2018-12-28T20:48:21.892Z,3.80
2018-12-28T20:50:52.534Z,3.70
2018-12-28T20:53:28.658Z,3.70
2018-12-28T20:56:02.772Z,3.80
2018-12-28T20:58:34.573Z,3.80
2018-12-28T21:01:06.551Z,3.80
2018-12-28T21:03:36.710Z,3.50
2018-12-28T21:06:09.510Z,3.50
2018-12-28T21:08:39.770Z,3.50
2018-12-28T21:11:10.117Z,3.40
2018-12-28T21:13:40.553Z,3.60
2018-12-28T21:16:12.505Z,3.60
2018-12-28T21:18:47.792Z,3.50
2018-12-28T21:21:20.234Z,3.60
2018-12-28T21:23:53.287Z,3.70
2018-12-28T21:26:23.759Z,3.70
2018-12-28T21:28:54.050Z,3.70
2018-12-28T21:31:24.936Z,3.80
2018-12-28T21:34:03.917Z,3.70
2018-12-28T21:36:34.839Z,3.80
2018-12-28T21:39:07.785Z,3.90
2018-12-28T21:41:38.189Z,3.70
2018-12-28T21:44:08.915Z,3.40
2018-12-28T21:46:39.263Z,3.30
2018-12-28T21:49:13.184Z,3.30
2018-12-28T21:51:44.889Z,3.20
2018-12-28T21:54:15.210Z,3.40
2018-12-28T21:56:45.505Z,3.40
2018-12-28T21:59:15.693Z,3.30
2018-12-28T22:01:54.025Z,3.30
2018-12-28T22:04:24.441Z,3.30
2018-12-28T22:06:54.739Z,3.20
2018-12-28T22:09:29.020Z,3.20
2018-12-28T22:12:05.243Z,3.20
2018-12-28T22:14:35.525Z,3.20
2018-12-28T22:17:06.216Z,3.40
2018-12-28T22:19:38.731Z,3.40
2018-12-28T22:22:11.357Z,3.30
2018-12-28T22:24:44.821Z,3.30
2018-12-28T22:27:16.254Z,3.40
2018-12-28T22:29:47.316Z,3.40
2018-12-28T22:32:17.548Z,3.40
2018-12-28T22:34:49.206Z,3.40
2018-12-28T22:37:19.441Z,3.40
2018-12-28T22:39:52.836Z,3.40
2018-12-28T22:42:25.748Z,3.40
2018-12-28T22:44:58.821Z,3.40
2018-12-28T22:47:30.128Z,3.40
2018-12-28T22:50:00.673Z,3.50
2018-12-28T22:52:34.101Z,3.50
2018-12-28T22:55:07.589Z,3.50
2018-12-28T22:57:37.794Z,3.50
2018-12-28T23:00:11.258Z,3.50
2018-12-28T23:02:45.036Z,3.60
2018-12-28T23:05:15.713Z,3.60
2018-12-28T23:07:45.870Z,3.60
2018-12-28T23:10:16.626Z,3.60
2018-12-28T23:12:50.009Z,3.60
2018-12-28T23:15:24.653Z,3.50
2018-12-28T23:17:52.477Z,3.60
2018-12-28T23:20:23.248Z,3.60
2018-12-28T23:22:56.532Z,3.60
2018-12-28T23:25:26.729Z,3.60
2018-12-28T23:27:57.188Z,3.60
2018-12-28T23:30:27.655Z,3.70
2018-12-28T23:32:58.053Z,3.60
2018-12-28T23:35:32.470Z,3.60
2018-12-28T23:38:02.957Z,3.60
2018-12-28T23:40:35.134Z,3.60
2018-12-28T23:43:05.809Z,3.60
2018-12-28T23:45:41.454Z,3.60
2018-12-28T23:48:11.826Z,3.50
2018-12-28T23:50:44.289Z,3.60
2018-12-28T23:53:14.710Z,3.60
2018-12-28T23:55:45.046Z,3.60
2018-12-28T23:58:17.263Z,3.60
